sensor_id;sensor_type;location;lat;lon;timestamp;temperature;humidity
4245;DHT22;2136;48.502;9.194;2023-08-20T00:01:35;24.30;95.30
4245;DHT22;2136;48.502;9.194;2023-08-20T00:04:02;24.30;95.90
4245;DHT22;2136;48.502;9.194;2023-08-20T00:06:30;24.20;96.70
4245;DHT22;2136;48.502;9.194;2023-08-20T00:08:57;24.20;96.50
4245;DHT22;2136;48.502;9.194;2023-08-20T00:11:26;24.10;96.80
4245;DHT22;2136;48.502;9.194;2023-08-20T00:13:52;24.10;97.30
4245;DHT22;2136;48.502;9.194;2023-08-20T00:16:20;24.10;97.80
4245;DHT22;2136;48.502;9.194;2023-08-20T00:18:47;24.10;97.80
4245;DHT22;2136;48.502;9.194;2023-08-20T00:21:14;24.00;97.60
4245;DHT22;2136;48.502;9.194;2023-08-20T00:23:42;24.00;97.80
4245;DHT22;2136;48.502;9.194;2023-08-20T00:26:09;24.00;97.70
4245;DHT22;2136;48.502;9.194;2023-08-20T00:28:38;24.00;98.00
4245;DHT22;2136;48.502;9.194;2023-08-20T00:31:05;24.00;98.40
4245;DHT22;2136;48.502;9.194;2023-08-20T00:33:32;23.90;98.40
4245;DHT22;2136;48.502;9.194;2023-08-20T00:35:59;23.90;98.60
4245;DHT22;2136;48.502;9.194;2023-08-20T00:38:26;23.90;98.20
4245;DHT22;2136;48.502;9.194;2023-08-20T00:40:52;23.90;97.50
4245;DHT22;2136;48.502;9.194;2023-08-20T00:43:19;23.90;97.30
4245;DHT22;2136;48.502;9.194;2023-08-20T00:45:48;23.80;97.40
4245;DHT22;2136;48.502;9.194;2023-08-20T00:48:15;23.80;98.10
4245;DHT22;2136;48.502;9.194;2023-08-20T00:50:42;23.80;99.30
4245;DHT22;2136;48.502;9.194;2023-08-20T00:53:11;23.80;99.30
4245;DHT22;2136;48.502;9.194;2023-08-20T00:55:38;23.80;98.90
4245;DHT22;2136;48.502;9.194;2023-08-20T00:58:05;23.70;98.50
4245;DHT22;2136;48.502;9.194;2023-08-20T01:00:32;23.70;98.20
4245;DHT22;2136;48.502;9.194;2023-08-20T01:03:00;23.70;98.20
4245;DHT22;2136;48.502;9.194;2023-08-20T01:05:30;23.70;98.80
4245;DHT22;2136;48.502;9.194;2023-08-20T01:08:07;23.70;99.10
4245;DHT22;2136;48.502;9.194;2023-08-20T01:10:44;23.60;98.60
4245;DHT22;2136;48.502;9.194;2023-08-20T01:13:12;23.60;98.70
4245;DHT22;2136;48.502;9.194;2023-08-20T01:15:39;23.50;98.40
4245;DHT22;2136;48.502;9.194;2023-08-20T01:18:07;23.50;98.40
4245;DHT22;2136;48.502;9.194;2023-08-20T01:20:41;23.50;98.40
4245;DHT22;2136;48.502;9.194;2023-08-20T01:23:40;23.50;98.20
4245;DHT22;2136;48.502;9.194;2023-08-20T01:26:21;23.40;98.60
4245;DHT22;2136;48.502;9.194;2023-08-20T01:28:54;23.40;99.10
4245;DHT22;2136;48.502;9.194;2023-08-20T01:31:22;23.40;99.90
4245;DHT22;2136;48.502;9.194;2023-08-20T01:33:49;23.40;99.90
4245;DHT22;2136;48.502;9.194;2023-08-20T01:36:17;23.40;99.90
4245;DHT22;2136;48.502;9.194;2023-08-20T01:38:43;23.30;99.90
4245;DHT22;2136;48.502;9.194;2023-08-20T01:41:10;23.40;99.90
4245;DHT22;2136;48.502;9.194;2023-08-20T01:43:38;23.30;99.90
4245;DHT22;2136;48.502;9.194;2023-08-20T01:46:07;23.30;99.90
4245;DHT22;2136;48.502;9.194;2023-08-20T01:48:35;23.30;99.90
4245;DHT22;2136;48.502;9.194;2023-08-20T01:51:02;23.30;99.90
4245;DHT22;2136;48.502;9.194;2023-08-20T01:53:28;23.20;99.90
4245;DHT22;2136;48.502;9.194;2023-08-20T01:55:55;23.20;99.90
4245;DHT22;2136;48.502;9.194;2023-08-20T01:58:22;23.20;99.90
4245;DHT22;2136;48.502;9.194;2023-08-20T02:00:50;23.20;99.90
4245;DHT22;2136;48.502;9.194;2023-08-20T02:03:19;23.20;99.90
4245;DHT22;2136;48.502;9.194;2023-08-20T02:05:45;23.10;99.90
4245;DHT22;2136;48.502;9.194;2023-08-20T02:08:12;23.10;99.90
4245;DHT22;2136;48.502;9.194;2023-08-20T02:10:40;23.10;99.90
4245;DHT22;2136;48.502;9.194;2023-08-20T02:13:07;23.10;99.90
4245;DHT22;2136;48.502;9.194;2023-08-20T02:15:34;23.00;99.90
4245;DHT22;2136;48.502;9.194;2023-08-20T02:18:01;23.00;99.90
4245;DHT22;2136;48.502;9.194;2023-08-20T02:20:29;23.00;99.90
4245;DHT22;2136;48.502;9.194;2023-08-20T02:22:56;23.00;99.90
4245;DHT22;2136;48.502;9.194;2023-08-20T02:25:23;23.00;99.90
4245;DHT22;2136;48.502;9.194;2023-08-20T02:27:50;22.90;99.90
4245;DHT22;2136;48.502;9.194;2023-08-20T02:30:17;22.90;99.90
4245;DHT22;2136;48.502;9.194;2023-08-20T02:32:43;22.90;99.90
4245;DHT22;2136;48.502;9.194;2023-08-20T02:35:10;22.90;99.90
4245;DHT22;2136;48.502;9.194;2023-08-20T02:37:40;22.90;99.90
4245;DHT22;2136;48.502;9.194;2023-08-20T02:40:08;22.80;99.90
4245;DHT22;2136;48.502;9.194;2023-08-20T02:42:35;22.80;99.90
4245;DHT22;2136;48.502;9.194;2023-08-20T02:45:03;22.80;99.90
4245;DHT22;2136;48.502;9.194;2023-08-20T02:47:29;22.80;99.90
4245;DHT22;2136;48.502;9.194;2023-08-20T02:49:56;22.80;99.90
4245;DHT22;2136;48.502;9.194;2023-08-20T02:52:23;22.80;99.90
4245;DHT22;2136;48.502;9.194;2023-08-20T02:54:51;22.80;99.90
4245;DHT22;2136;48.502;9.194;2023-08-20T02:57:18;22.70;99.90
4245;DHT22;2136;48.502;9.194;2023-08-20T02:59:45;22.70;99.90
4245;DHT22;2136;48.502;9.194;2023-08-20T03:02:11;22.70;99.90
4245;DHT22;2136;48.502;9.194;2023-08-20T03:04:38;22.70;99.90
4245;DHT22;2136;48.502;9.194;2023-08-20T03:07:05;22.70;99.90
4245;DHT22;2136;48.502;9.194;2023-08-20T03:09:32;22.70;99.90
4245;DHT22;2136;48.502;9.194;2023-08-20T03:12:00;22.70;99.90
4245;DHT22;2136;48.502;9.194;2023-08-20T03:14:27;22.70;99.90
4245;DHT22;2136;48.502;9.194;2023-08-20T03:16:54;22.70;99.90
4245;DHT22;2136;48.502;9.194;2023-08-20T03:19:20;22.60;99.90
4245;DHT22;2136;48.502;9.194;2023-08-20T03:21:47;22.60;99.90
4245;DHT22;2136;48.502;9.194;2023-08-20T03:24:14;22.60;99.90
4245;DHT22;2136;48.502;9.194;2023-08-20T03:26:41;22.60;99.90
4245;DHT22;2136;48.502;9.194;2023-08-20T03:29:09;22.50;99.90
4245;DHT22;2136;48.502;9.194;2023-08-20T03:31:36;22.50;99.90
4245;DHT22;2136;48.502;9.194;2023-08-20T03:34:03;22.50;99.90
4245;DHT22;2136;48.502;9.194;2023-08-20T03:36:29;22.40;99.90
4245;DHT22;2136;48.502;9.194;2023-08-20T03:38:56;22.40;99.90
4245;DHT22;2136;48.502;9.194;2023-08-20T03:41:23;22.40;99.90
4245;DHT22;2136;48.502;9.194;2023-08-20T03:43:50;22.40;99.90
4245;DHT22;2136;48.502;9.194;2023-08-20T03:46:18;22.40;99.90
4245;DHT22;2136;48.502;9.194;2023-08-20T03:48:45;22.30;99.90
4245;DHT22;2136;48.502;9.194;2023-08-20T03:51:11;22.30;99.90
4245;DHT22;2136;48.502;9.194;2023-08-20T03:53:38;22.30;99.90
4245;DHT22;2136;48.502;9.194;2023-08-20T03:56:05;22.30;99.90
4245;DHT22;2136;48.502;9.194;2023-08-20T03:58:32;22.20;99.90
4245;DHT22;2136;48.502;9.194;2023-08-20T04:00:59;22.20;99.90
4245;DHT22;2136;48.502;9.194;2023-08-20T04:03:27;22.20;99.90
4245;DHT22;2136;48.502;9.194;2023-08-20T04:05:54;22.20;99.90
4245;DHT22;2136;48.502;9.194;2023-08-20T04:08:21;22.20;99.90
4245;DHT22;2136;48.502;9.194;2023-08-20T04:10:48;22.10;99.90
4245;DHT22;2136;48.502;9.194;2023-08-20T04:13:15;22.10;99.90
4245;DHT22;2136;48.502;9.194;2023-08-20T04:15:41;22.20;99.90
4245;DHT22;2136;48.502;9.194;2023-08-20T04:18:08;22.10;99.90
4245;DHT22;2136;48.502;9.194;2023-08-20T04:20:36;22.10;99.90
4245;DHT22;2136;48.502;9.194;2023-08-20T04:23:04;22.10;99.90
4245;DHT22;2136;48.502;9.194;2023-08-20T04:25:31;22.10;99.90
4245;DHT22;2136;48.502;9.194;2023-08-20T04:27:57;22.10;99.90
4245;DHT22;2136;48.502;9.194;2023-08-20T04:30:24;22.00;99.90
4245;DHT22;2136;48.502;9.194;2023-08-20T04:32:51;22.00;99.90
4245;DHT22;2136;48.502;9.194;2023-08-20T04:35:18;22.00;99.90
4245;DHT22;2136;48.502;9.194;2023-08-20T04:37:46;22.00;99.90
4245;DHT22;2136;48.502;9.194;2023-08-20T04:40:13;22.10;99.90
4245;DHT22;2136;48.502;9.194;2023-08-20T04:42:39;22.10;99.90
4245;DHT22;2136;48.502;9.194;2023-08-20T04:45:07;22.10;99.90
4245;DHT22;2136;48.502;9.194;2023-08-20T04:47:35;22.20;99.90
4245;DHT22;2136;48.502;9.194;2023-08-20T04:50:02;22.20;99.90
4245;DHT22;2136;48.502;9.194;2023-08-20T04:52:28;22.20;99.90
4245;DHT22;2136;48.502;9.194;2023-08-20T04:54:57;22.20;99.90
4245;DHT22;2136;48.502;9.194;2023-08-20T04:57:23;22.20;99.90
4245;DHT22;2136;48.502;9.194;2023-08-20T04:59:50;22.20;99.90
4245;DHT22;2136;48.502;9.194;2023-08-20T05:02:17;22.30;99.90
4245;DHT22;2136;48.502;9.194;2023-08-20T05:04:44;22.20;99.90
4245;DHT22;2136;48.502;9.194;2023-08-20T05:07:11;22.30;99.90
4245;DHT22;2136;48.502;9.194;2023-08-20T05:09:38;22.30;99.90
4245;DHT22;2136;48.502;9.194;2023-08-20T05:12:07;22.20;99.90
4245;DHT22;2136;48.502;9.194;2023-08-20T05:14:34;22.20;99.90
4245;DHT22;2136;48.502;9.194;2023-08-20T05:17:01;22.20;99.90
4245;DHT22;2136;48.502;9.194;2023-08-20T05:19:28;22.20;99.90
4245;DHT22;2136;48.502;9.194;2023-08-20T05:21:54;22.20;99.90
4245;DHT22;2136;48.502;9.194;2023-08-20T05:24:24;22.20;99.90
4245;DHT22;2136;48.502;9.194;2023-08-20T05:27:05;22.20;99.90
4245;DHT22;2136;48.502;9.194;2023-08-20T05:29:33;22.20;99.90
4245;DHT22;2136;48.502;9.194;2023-08-20T05:32:00;22.20;99.90
4245;DHT22;2136;48.502;9.194;2023-08-20T05:34:27;22.20;99.90
4245;DHT22;2136;48.502;9.194;2023-08-20T05:36:54;22.20;99.90
4245;DHT22;2136;48.502;9.194;2023-08-20T05:39:21;22.30;99.90
4245;DHT22;2136;48.502;9.194;2023-08-20T05:41:48;22.30;99.90
4245;DHT22;2136;48.502;9.194;2023-08-20T05:44:16;22.30;99.90
4245;DHT22;2136;48.502;9.194;2023-08-20T05:46:43;22.40;99.90
4245;DHT22;2136;48.502;9.194;2023-08-20T05:49:10;22.40;99.90
4245;DHT22;2136;48.502;9.194;2023-08-20T05:51:37;22.50;99.90
4245;DHT22;2136;48.502;9.194;2023-08-20T05:54:04;22.50;99.90
4245;DHT22;2136;48.502;9.194;2023-08-20T05:56:31;22.60;99.90
4245;DHT22;2136;48.502;9.194;2023-08-20T05:58:57;22.60;99.90
4245;DHT22;2136;48.502;9.194;2023-08-20T06:01:25;22.60;99.90
4245;DHT22;2136;48.502;9.194;2023-08-20T06:03:52;22.70;99.90
4245;DHT22;2136;48.502;9.194;2023-08-20T06:06:19;22.70;99.90
4245;DHT22;2136;48.502;9.194;2023-08-20T06:08:46;22.80;99.90
4245;DHT22;2136;48.502;9.194;2023-08-20T06:11:13;22.80;99.90
4245;DHT22;2136;48.502;9.194;2023-08-20T06:13:39;22.90;99.90
4245;DHT22;2136;48.502;9.194;2023-08-20T06:16:07;22.90;99.90
4245;DHT22;2136;48.502;9.194;2023-08-20T06:18:35;23.00;99.90
4245;DHT22;2136;48.502;9.194;2023-08-20T06:21:02;23.00;99.90
4245;DHT22;2136;48.502;9.194;2023-08-20T06:23:29;23.10;99.90
4245;DHT22;2136;48.502;9.194;2023-08-20T06:25:56;23.10;99.90
4245;DHT22;2136;48.502;9.194;2023-08-20T06:28:23;23.20;99.90
4245;DHT22;2136;48.502;9.194;2023-08-20T06:30:49;23.20;99.90
4245;DHT22;2136;48.502;9.194;2023-08-20T06:33:16;23.20;99.90
4245;DHT22;2136;48.502;9.194;2023-08-20T06:35:44;23.30;99.90
4245;DHT22;2136;48.502;9.194;2023-08-20T06:38:11;23.30;99.90
4245;DHT22;2136;48.502;9.194;2023-08-20T06:40:38;23.30;99.90
4245;DHT22;2136;48.502;9.194;2023-08-20T06:43:05;23.40;99.90
4245;DHT22;2136;48.502;9.194;2023-08-20T06:45:32;23.50;99.90
4245;DHT22;2136;48.502;9.194;2023-08-20T06:47:58;23.50;99.90
4245;DHT22;2136;48.502;9.194;2023-08-20T06:50:25;23.60;99.90
4245;DHT22;2136;48.502;9.194;2023-08-20T06:52:53;23.60;99.90
4245;DHT22;2136;48.502;9.194;2023-08-20T06:55:20;23.70;99.90
4245;DHT22;2136;48.502;9.194;2023-08-20T06:57:47;23.80;99.90
4245;DHT22;2136;48.502;9.194;2023-08-20T07:00:14;23.90;99.90
4245;DHT22;2136;48.502;9.194;2023-08-20T07:02:41;23.90;99.90
4245;DHT22;2136;48.502;9.194;2023-08-20T07:05:08;24.10;99.90
4245;DHT22;2136;48.502;9.194;2023-08-20T07:07:35;24.10;99.90
4245;DHT22;2136;48.502;9.194;2023-08-20T07:10:04;24.30;99.90
4245;DHT22;2136;48.502;9.194;2023-08-20T07:12:31;24.30;99.90
4245;DHT22;2136;48.502;9.194;2023-08-20T07:14:58;24.50;99.90
4245;DHT22;2136;48.502;9.194;2023-08-20T07:17:25;24.60;99.90
4245;DHT22;2136;48.502;9.194;2023-08-20T07:19:52;24.70;99.90
4245;DHT22;2136;48.502;9.194;2023-08-20T07:22:18;24.80;99.90
4245;DHT22;2136;48.502;9.194;2023-08-20T07:24:45;24.90;99.40
4245;DHT22;2136;48.502;9.194;2023-08-20T07:27:13;25.00;98.70
4245;DHT22;2136;48.502;9.194;2023-08-20T07:29:41;25.10;97.70
4245;DHT22;2136;48.502;9.194;2023-08-20T07:32:08;25.20;97.10
4245;DHT22;2136;48.502;9.194;2023-08-20T07:34:35;25.30;96.80
4245;DHT22;2136;48.502;9.194;2023-08-20T07:37:02;25.40;96.60
4245;DHT22;2136;48.502;9.194;2023-08-20T07:39:30;25.50;96.40
4245;DHT22;2136;48.502;9.194;2023-08-20T07:41:57;25.60;95.50
4245;DHT22;2136;48.502;9.194;2023-08-20T07:44:25;25.70;94.80
4245;DHT22;2136;48.502;9.194;2023-08-20T07:46:53;25.80;94.20
4245;DHT22;2136;48.502;9.194;2023-08-20T07:49:20;25.80;93.80
4245;DHT22;2136;48.502;9.194;2023-08-20T07:51:47;25.90;93.90
4245;DHT22;2136;48.502;9.194;2023-08-20T07:54:14;26.00;93.90
4245;DHT22;2136;48.502;9.194;2023-08-20T07:56:40;26.10;93.60
4245;DHT22;2136;48.502;9.194;2023-08-20T07:59:07;26.20;93.20
4245;DHT22;2136;48.502;9.194;2023-08-20T08:01:35;26.40;92.70
4245;DHT22;2136;48.502;9.194;2023-08-20T08:04:02;26.50;92.10
4245;DHT22;2136;48.502;9.194;2023-08-20T08:06:29;26.60;91.50
4245;DHT22;2136;48.502;9.194;2023-08-20T08:08:56;26.70;91.20
4245;DHT22;2136;48.502;9.194;2023-08-20T08:11:23;26.80;91.30
4245;DHT22;2136;48.502;9.194;2023-08-20T08:13:50;27.10;91.20
4245;DHT22;2136;48.502;9.194;2023-08-20T08:16:17;27.30;90.40
4245;DHT22;2136;48.502;9.194;2023-08-20T08:18:45;27.40;89.40
4245;DHT22;2136;48.502;9.194;2023-08-20T08:21:12;27.50;88.10
4245;DHT22;2136;48.502;9.194;2023-08-20T08:23:39;27.60;86.90
4245;DHT22;2136;48.502;9.194;2023-08-20T08:26:05;27.70;85.40
4245;DHT22;2136;48.502;9.194;2023-08-20T08:28:32;27.70;85.40
4245;DHT22;2136;48.502;9.194;2023-08-20T08:30:59;27.80;85.20
4245;DHT22;2136;48.502;9.194;2023-08-20T08:33:26;27.90;84.70
4245;DHT22;2136;48.502;9.194;2023-08-20T08:35:54;28.00;84.50
4245;DHT22;2136;48.502;9.194;2023-08-20T08:38:21;28.10;84.10
4245;DHT22;2136;48.502;9.194;2023-08-20T08:40:49;28.20;83.40
4245;DHT22;2136;48.502;9.194;2023-08-20T08:43:16;28.30;83.30
4245;DHT22;2136;48.502;9.194;2023-08-20T08:45:46;28.40;83.70
4245;DHT22;2136;48.502;9.194;2023-08-20T08:48:14;28.50;83.80
4245;DHT22;2136;48.502;9.194;2023-08-20T08:50:41;28.70;82.60
4245;DHT22;2136;48.502;9.194;2023-08-20T08:53:10;28.80;80.90
4245;DHT22;2136;48.502;9.194;2023-08-20T08:55:36;29.00;80.80
4245;DHT22;2136;48.502;9.194;2023-08-20T08:58:04;29.10;79.60
4245;DHT22;2136;48.502;9.194;2023-08-20T09:00:31;29.20;79.30
4245;DHT22;2136;48.502;9.194;2023-08-20T09:02:58;29.30;78.30
4245;DHT22;2136;48.502;9.194;2023-08-20T09:05:25;29.40;77.20
4245;DHT22;2136;48.502;9.194;2023-08-20T09:07:55;29.50;76.00
4245;DHT22;2136;48.502;9.194;2023-08-20T09:10:26;29.70;75.50
4245;DHT22;2136;48.502;9.194;2023-08-20T09:12:54;29.80;74.80
4245;DHT22;2136;48.502;9.194;2023-08-20T09:15:22;29.90;74.40
4245;DHT22;2136;48.502;9.194;2023-08-20T09:17:56;30.00;74.00
4245;DHT22;2136;48.502;9.194;2023-08-20T09:20:34;30.20;73.80
4245;DHT22;2136;48.502;9.194;2023-08-20T09:23:01;30.40;72.60
4245;DHT22;2136;48.502;9.194;2023-08-20T09:25:29;30.50;72.20
4245;DHT22;2136;48.502;9.194;2023-08-20T09:27:55;30.60;71.90
4245;DHT22;2136;48.502;9.194;2023-08-20T09:30:22;30.80;70.70
4245;DHT22;2136;48.502;9.194;2023-08-20T09:33:03;31.00;69.80
4245;DHT22;2136;48.502;9.194;2023-08-20T09:35:30;31.20;68.00
4245;DHT22;2136;48.502;9.194;2023-08-20T09:37:59;31.60;67.20
4245;DHT22;2136;48.502;9.194;2023-08-20T09:40:28;31.90;65.10
4245;DHT22;2136;48.502;9.194;2023-08-20T09:42:56;32.60;63.70
4245;DHT22;2136;48.502;9.194;2023-08-20T09:45:24;33.30;63.30
4245;DHT22;2136;48.502;9.194;2023-08-20T09:47:55;34.40;59.90
4245;DHT22;2136;48.502;9.194;2023-08-20T09:50:23;35.30;57.10
4245;DHT22;2136;48.502;9.194;2023-08-20T09:52:57;36.20;55.00
4245;DHT22;2136;48.502;9.194;2023-08-20T09:55:32;37.10;53.00
4245;DHT22;2136;48.502;9.194;2023-08-20T09:58:01;38.40;51.80
4245;DHT22;2136;48.502;9.194;2023-08-20T10:00:28;39.70;48.80
4245;DHT22;2136;48.502;9.194;2023-08-20T10:02:56;41.20;46.30
4245;DHT22;2136;48.502;9.194;2023-08-20T10:05:25;43.10;43.50
4245;DHT22;2136;48.502;9.194;2023-08-20T10:07:52;44.50;41.10
4245;DHT22;2136;48.502;9.194;2023-08-20T10:10:20;45.70;38.80
4245;DHT22;2136;48.502;9.194;2023-08-20T10:12:49;47.20;36.60
4245;DHT22;2136;48.502;9.194;2023-08-20T10:15:15;48.70;34.90
4245;DHT22;2136;48.502;9.194;2023-08-20T10:17:45;50.10;32.70
4245;DHT22;2136;48.502;9.194;2023-08-20T10:20:14;51.10;31.30
4245;DHT22;2136;48.502;9.194;2023-08-20T10:22:43;52.40;30.40
4245;DHT22;2136;48.502;9.194;2023-08-20T10:25:10;53.40;29.70
4245;DHT22;2136;48.502;9.194;2023-08-20T10:27:39;54.10;28.40
4245;DHT22;2136;48.502;9.194;2023-08-20T10:30:11;54.70;28.20
4245;DHT22;2136;48.502;9.194;2023-08-20T10:32:50;55.50;27.90
4245;DHT22;2136;48.502;9.194;2023-08-20T10:35:18;56.20;27.10
4245;DHT22;2136;48.502;9.194;2023-08-20T10:38:03;56.50;26.80
4245;DHT22;2136;48.502;9.194;2023-08-20T10:40:49;57.30;26.70
4245;DHT22;2136;48.502;9.194;2023-08-20T10:43:26;57.90;26.10
4245;DHT22;2136;48.502;9.194;2023-08-20T10:46:07;58.30;25.50
4245;DHT22;2136;48.502;9.194;2023-08-20T10:48:35;58.80;25.20
4245;DHT22;2136;48.502;9.194;2023-08-20T10:51:07;59.10;24.90
4245;DHT22;2136;48.502;9.194;2023-08-20T10:53:34;59.60;24.50
4245;DHT22;2136;48.502;9.194;2023-08-20T10:56:11;59.80;24.40
4245;DHT22;2136;48.502;9.194;2023-08-20T10:58:40;60.20;23.60
4245;DHT22;2136;48.502;9.194;2023-08-20T11:01:18;60.30;23.30
4245;DHT22;2136;48.502;9.194;2023-08-20T11:03:45;60.50;23.10
4245;DHT22;2136;48.502;9.194;2023-08-20T11:06:12;60.70;23.10
4245;DHT22;2136;48.502;9.194;2023-08-20T11:08:39;61.00;22.90
4245;DHT22;2136;48.502;9.194;2023-08-20T11:11:07;61.10;22.70
4245;DHT22;2136;48.502;9.194;2023-08-20T11:13:35;61.30;22.70
4245;DHT22;2136;48.502;9.194;2023-08-20T11:16:02;61.50;22.60
4245;DHT22;2136;48.502;9.194;2023-08-20T11:18:32;61.70;22.40
4245;DHT22;2136;48.502;9.194;2023-08-20T11:20:59;62.00;22.00
4245;DHT22;2136;48.502;9.194;2023-08-20T11:23:27;62.20;21.70
4245;DHT22;2136;48.502;9.194;2023-08-20T11:25:54;62.40;21.60
4245;DHT22;2136;48.502;9.194;2023-08-20T11:28:21;62.60;21.50
4245;DHT22;2136;48.502;9.194;2023-08-20T11:30:47;62.80;21.40
4245;DHT22;2136;48.502;9.194;2023-08-20T11:33:16;63.10;21.40
4245;DHT22;2136;48.502;9.194;2023-08-20T11:35:44;63.30;21.30
4245;DHT22;2136;48.502;9.194;2023-08-20T11:38:12;63.30;21.30
4245;DHT22;2136;48.502;9.194;2023-08-20T11:40:40;62.60;20.90
4245;DHT22;2136;48.502;9.194;2023-08-20T11:43:06;61.70;21.10
4245;DHT22;2136;48.502;9.194;2023-08-20T11:45:44;60.70;21.40
4245;DHT22;2136;48.502;9.194;2023-08-20T11:48:11;58.70;21.60
4245;DHT22;2136;48.502;9.194;2023-08-20T11:50:38;56.50;22.40
4245;DHT22;2136;48.502;9.194;2023-08-20T11:53:08;54.40;23.60
4245;DHT22;2136;48.502;9.194;2023-08-20T11:55:35;52.40;24.50
4245;DHT22;2136;48.502;9.194;2023-08-20T11:58:02;50.40;25.60
4245;DHT22;2136;48.502;9.194;2023-08-20T12:00:31;48.80;26.70
4245;DHT22;2136;48.502;9.194;2023-08-20T12:02:58;47.10;28.00
4245;DHT22;2136;48.502;9.194;2023-08-20T12:05:28;45.70;29.10
4245;DHT22;2136;48.502;9.194;2023-08-20T12:07:56;44.40;30.00
4245;DHT22;2136;48.502;9.194;2023-08-20T12:10:26;43.20;31.30
4245;DHT22;2136;48.502;9.194;2023-08-20T12:12:54;42.20;32.50
4245;DHT22;2136;48.502;9.194;2023-08-20T12:15:22;41.30;34.40
4245;DHT22;2136;48.502;9.194;2023-08-20T12:18:00;40.50;35.10
4245;DHT22;2136;48.502;9.194;2023-08-20T12:20:28;39.80;36.50
4245;DHT22;2136;48.502;9.194;2023-08-20T12:22:58;39.10;37.40
4245;DHT22;2136;48.502;9.194;2023-08-20T12:25:29;38.60;37.90
4245;DHT22;2136;48.502;9.194;2023-08-20T12:27:56;38.00;38.60
4245;DHT22;2136;48.502;9.194;2023-08-20T12:30:22;37.60;39.50
4245;DHT22;2136;48.502;9.194;2023-08-20T12:32:49;37.20;39.90
4245;DHT22;2136;48.502;9.194;2023-08-20T12:35:16;36.80;40.30
4245;DHT22;2136;48.502;9.194;2023-08-20T12:37:43;36.60;41.00
4245;DHT22;2136;48.502;9.194;2023-08-20T12:40:11;36.30;41.70
4245;DHT22;2136;48.502;9.194;2023-08-20T12:42:40;36.10;42.70
4245;DHT22;2136;48.502;9.194;2023-08-20T12:45:07;35.90;44.20
4245;DHT22;2136;48.502;9.194;2023-08-20T12:47:34;35.70;45.10
4245;DHT22;2136;48.502;9.194;2023-08-20T12:50:01;35.50;44.30
4245;DHT22;2136;48.502;9.194;2023-08-20T12:52:28;35.50;43.80
4245;DHT22;2136;48.502;9.194;2023-08-20T12:54:55;35.30;44.40
4245;DHT22;2136;48.502;9.194;2023-08-20T12:57:22;35.20;44.30
4245;DHT22;2136;48.502;9.194;2023-08-20T12:59:50;35.20;43.70
4245;DHT22;2136;48.502;9.194;2023-08-20T13:02:19;35.60;43.90
4245;DHT22;2136;48.502;9.194;2023-08-20T13:04:46;37.20;43.50
4245;DHT22;2136;48.502;9.194;2023-08-20T13:07:13;39.30;42.50
4245;DHT22;2136;48.502;9.194;2023-08-20T13:09:41;41.00;40.20
4245;DHT22;2136;48.502;9.194;2023-08-20T13:12:10;42.60;38.20
4245;DHT22;2136;48.502;9.194;2023-08-20T13:14:38;43.70;36.50
4245;DHT22;2136;48.502;9.194;2023-08-20T13:17:08;43.60;36.10
4245;DHT22;2136;48.502;9.194;2023-08-20T13:19:35;43.00;36.10
4245;DHT22;2136;48.502;9.194;2023-08-20T13:22:02;42.50;35.90
4245;DHT22;2136;48.502;9.194;2023-08-20T13:24:29;42.30;35.60
4245;DHT22;2136;48.502;9.194;2023-08-20T13:26:56;42.20;36.60
4245;DHT22;2136;48.502;9.194;2023-08-20T13:29:22;42.50;35.90
4245;DHT22;2136;48.502;9.194;2023-08-20T13:31:49;42.30;35.80
4245;DHT22;2136;48.502;9.194;2023-08-20T13:34:17;41.80;35.80
4245;DHT22;2136;48.502;9.194;2023-08-20T13:36:44;41.20;35.80
4245;DHT22;2136;48.502;9.194;2023-08-20T13:39:12;40.50;36.50
4245;DHT22;2136;48.502;9.194;2023-08-20T13:41:40;40.20;37.40
4245;DHT22;2136;48.502;9.194;2023-08-20T13:44:07;39.80;38.00
4245;DHT22;2136;48.502;9.194;2023-08-20T13:46:34;39.40;38.50
4245;DHT22;2136;48.502;9.194;2023-08-20T13:49:01;39.10;39.20
4245;DHT22;2136;48.502;9.194;2023-08-20T13:51:30;38.80;39.70
4245;DHT22;2136;48.502;9.194;2023-08-20T13:53:56;38.50;39.90
4245;DHT22;2136;48.502;9.194;2023-08-20T13:56:23;38.20;40.90
4245;DHT22;2136;48.502;9.194;2023-08-20T13:58:51;37.90;41.20
4245;DHT22;2136;48.502;9.194;2023-08-20T14:01:18;37.70;41.20
4245;DHT22;2136;48.502;9.194;2023-08-20T14:03:44;37.50;41.70
4245;DHT22;2136;48.502;9.194;2023-08-20T14:06:11;37.40;42.20
4245;DHT22;2136;48.502;9.194;2023-08-20T14:08:39;37.20;42.50
4245;DHT22;2136;48.502;9.194;2023-08-20T14:11:06;36.90;43.70
4245;DHT22;2136;48.502;9.194;2023-08-20T14:13:33;36.80;43.40
4245;DHT22;2136;48.502;9.194;2023-08-20T14:16:00;36.90;43.40
4245;DHT22;2136;48.502;9.194;2023-08-20T14:18:27;37.10;44.20
4245;DHT22;2136;48.502;9.194;2023-08-20T14:20:55;37.10;43.50
4245;DHT22;2136;48.502;9.194;2023-08-20T14:23:22;37.10;43.20
4245;DHT22;2136;48.502;9.194;2023-08-20T14:25:50;36.90;43.70
4245;DHT22;2136;48.502;9.194;2023-08-20T14:28:19;36.80;44.20
4245;DHT22;2136;48.502;9.194;2023-08-20T14:30:45;36.70;44.00
4245;DHT22;2136;48.502;9.194;2023-08-20T14:33:13;36.70;44.30
4245;DHT22;2136;48.502;9.194;2023-08-20T14:35:40;36.80;44.10
4245;DHT22;2136;48.502;9.194;2023-08-20T14:38:07;36.80;44.00
4245;DHT22;2136;48.502;9.194;2023-08-20T14:40:37;36.90;43.80
4245;DHT22;2136;48.502;9.194;2023-08-20T14:43:06;37.00;44.30
4245;DHT22;2136;48.502;9.194;2023-08-20T14:45:33;37.20;44.40
4245;DHT22;2136;48.502;9.194;2023-08-20T14:48:00;37.20;44.10
4245;DHT22;2136;48.502;9.194;2023-08-20T14:50:28;37.00;44.10
4245;DHT22;2136;48.502;9.194;2023-08-20T14:52:55;37.00;43.50
4245;DHT22;2136;48.502;9.194;2023-08-20T14:55:21;36.80;43.30
4245;DHT22;2136;48.502;9.194;2023-08-20T14:57:48;36.70;43.10
4245;DHT22;2136;48.502;9.194;2023-08-20T15:00:16;36.60;43.90
4245;DHT22;2136;48.502;9.194;2023-08-20T15:02:43;36.40;43.80
4245;DHT22;2136;48.502;9.194;2023-08-20T15:05:11;36.30;44.00
4245;DHT22;2136;48.502;9.194;2023-08-20T15:07:38;36.20;44.30
4245;DHT22;2136;48.502;9.194;2023-08-20T15:10:06;36.00;44.60
4245;DHT22;2136;48.502;9.194;2023-08-20T15:12:33;35.80;44.80
4245;DHT22;2136;48.502;9.194;2023-08-20T15:15:00;35.60;45.00
4245;DHT22;2136;48.502;9.194;2023-08-20T15:17:28;35.50;45.60
4245;DHT22;2136;48.502;9.194;2023-08-20T15:19:55;35.40;46.00
4245;DHT22;2136;48.502;9.194;2023-08-20T15:22:21;35.30;45.70
4245;DHT22;2136;48.502;9.194;2023-08-20T15:24:48;35.20;45.80
4245;DHT22;2136;48.502;9.194;2023-08-20T15:27:16;35.20;46.30
4245;DHT22;2136;48.502;9.194;2023-08-20T15:29:43;35.10;46.50
4245;DHT22;2136;48.502;9.194;2023-08-20T15:32:11;35.00;46.20
4245;DHT22;2136;48.502;9.194;2023-08-20T15:34:39;34.80;46.90
4245;DHT22;2136;48.502;9.194;2023-08-20T15:37:06;34.80;47.10
4245;DHT22;2136;48.502;9.194;2023-08-20T15:39:33;34.70;47.40
4245;DHT22;2136;48.502;9.194;2023-08-20T15:42:00;34.60;46.80
4245;DHT22;2136;48.502;9.194;2023-08-20T15:44:27;34.60;46.90
4245;DHT22;2136;48.502;9.194;2023-08-20T15:46:54;34.40;47.10
4245;DHT22;2136;48.502;9.194;2023-08-20T15:49:21;34.30;47.10
4245;DHT22;2136;48.502;9.194;2023-08-20T15:51:49;34.10;47.20
4245;DHT22;2136;48.502;9.194;2023-08-20T15:54:16;34.00;47.50
4245;DHT22;2136;48.502;9.194;2023-08-20T15:56:44;33.80;48.00
4245;DHT22;2136;48.502;9.194;2023-08-20T15:59:11;33.80;48.50
4245;DHT22;2136;48.502;9.194;2023-08-20T16:01:38;33.70;48.50
4245;DHT22;2136;48.502;9.194;2023-08-20T16:04:05;33.60;48.60
4245;DHT22;2136;48.502;9.194;2023-08-20T16:06:33;33.50;48.40